KSBN

South Bend Regional Airport

Airport
ICAO code
KSBN
Summary
ICAO Region
NAM
ICAO Territory
Location

South Bend, Indiana,

Coordinates
41° 42' 26" N , 86° 19' 9" W
KCC
Airport LOS
Parallel Runway Operation
Metar
Observation
KSBN 031954Z VRB03KT 10SM CLR 21/02 A3033 RMK AO2 SLP270 T02060017
Station
South Bend, South Bend Regional Airport
Date/Time
2022-10-03 19:54:00
Wind speed
03 kts
Lowest cloud amount
n/a
Temperature
20.6°C
Dew point
1.7°C
Humidity
28%
Weather condition
n/a

Description

South Bend Regional Airport is a public airport located 5 km northwest of the central business district of South Bend, a city in St. Joseph County, Indiana.

Climatology

Humid continental climate (Köppen climate classification Dfa) - characterized by four seasons: cold, windy, snowy winters, mild springs, hot, humid summers, and crisp and relatively short autumns. Precipitation reaches its lowest in January and February and peaks in summer and latter half of spring.

Runways

Designator Length Width Surface Rops
09L/27R 1311 23 ASP Yes/Yes
18/36 1829 46 ASP Yes/Yes
09R/27L 2564 46 ASP Yes/Yes

Airport map

Aerial View

SKYbrary Partners:

Safety knowledge contributed by: